Terminal Aerodrome Forecast
Issued by NWS

Home | Current Version | Previous Version | Text Only | Print | Product List | Glossary On
Versions: 1 2 3 4 5 6 7 8 9 10 11 12 13 14 15 16 17 18 19
979
FTUS42 KFFC 070923 AAB
TAFRYY
TAF AMD
KRYY 070923Z 0709/0806 31006KT P6SM SCT015
      TEMPO 0710/0714 BKN015
     FM071400 32006KT P6SM BKN020
     FM071700 29005KT P6SM SCT035
     FM080000 30004KT P6SM SCT050
      AMD NOT SKED TIL 071200=

USA.gov is the U.S. government's official web portal to all federal, state and local government web resources and services.